sensor_id;sensor_type;location;lat;lon;timestamp;P1;durP1;ratioP1;P2;durP2;ratioP2
40154;SDS011;25875;48.202;16.334;2022-07-12T00:01:58;5.55;;;3.45;;
40154;SDS011;25875;48.202;16.334;2022-07-12T00:04:26;5.30;;;4.40;;
40154;SDS011;25875;48.202;16.334;2022-07-12T00:06:54;4.10;;;3.42;;
40154;SDS011;25875;48.202;16.334;2022-07-12T00:09:22;7.57;;;3.03;;
40154;SDS011;25875;48.202;16.334;2022-07-12T00:11:49;2.97;;;2.35;;
40154;SDS011;25875;48.202;16.334;2022-07-12T00:14:18;2.90;;;1.70;;
40154;SDS011;25875;48.202;16.334;2022-07-12T00:16:45;3.53;;;2.25;;
40154;SDS011;25875;48.202;16.334;2022-07-12T00:19:13;3.28;;;2.08;;
40154;SDS011;25875;48.202;16.334;2022-07-12T00:21:40;3.10;;;2.13;;
40154;SDS011;25875;48.202;16.334;2022-07-12T00:24:08;5.38;;;2.33;;
40154;SDS011;25875;48.202;16.334;2022-07-12T00:26:35;6.70;;;3.03;;
40154;SDS011;25875;48.202;16.334;2022-07-12T00:29:03;3.22;;;2.00;;
40154;SDS011;25875;48.202;16.334;2022-07-12T00:31:32;2.60;;;1.83;;
40154;SDS011;25875;48.202;16.334;2022-07-12T00:33:59;4.20;;;2.30;;
40154;SDS011;25875;48.202;16.334;2022-07-12T00:36:27;3.35;;;2.00;;
40154;SDS011;25875;48.202;16.334;2022-07-12T00:38:54;6.93;;;2.55;;
40154;SDS011;25875;48.202;16.334;2022-07-12T00:41:22;4.13;;;2.30;;
40154;SDS011;25875;48.202;16.334;2022-07-12T00:43:49;2.45;;;1.73;;
40154;SDS011;25875;48.202;16.334;2022-07-12T00:46:18;2.95;;;1.70;;
40154;SDS011;25875;48.202;16.334;2022-07-12T00:48:50;3.05;;;1.80;;
40154;SDS011;25875;48.202;16.334;2022-07-12T00:51:18;3.20;;;1.98;;
40154;SDS011;25875;48.202;16.334;2022-07-12T00:53:45;2.50;;;1.60;;
40154;SDS011;25875;48.202;16.334;2022-07-12T00:56:13;2.15;;;1.55;;
40154;SDS011;25875;48.202;16.334;2022-07-12T00:58:40;3.53;;;2.22;;
40154;SDS011;25875;48.202;16.334;2022-07-12T01:01:08;3.30;;;1.98;;
40154;SDS011;25875;48.202;16.334;2022-07-12T01:03:36;4.32;;;1.98;;
40154;SDS011;25875;48.202;16.334;2022-07-12T01:06:05;2.28;;;1.60;;
40154;SDS011;25875;48.202;16.334;2022-07-12T01:08:33;5.93;;;1.95;;
40154;SDS011;25875;48.202;16.334;2022-07-12T01:11:02;2.88;;;2.00;;
40154;SDS011;25875;48.202;16.334;2022-07-12T01:13:29;2.50;;;1.75;;
40154;SDS011;25875;48.202;16.334;2022-07-12T01:15:57;2.83;;;1.77;;
40154;SDS011;25875;48.202;16.334;2022-07-12T01:18:25;3.00;;;1.92;;
40154;SDS011;25875;48.202;16.334;2022-07-12T01:20:53;3.65;;;1.80;;
40154;SDS011;25875;48.202;16.334;2022-07-12T01:23:23;3.03;;;1.60;;
40154;SDS011;25875;48.202;16.334;2022-07-12T01:25:53;2.78;;;1.80;;
40154;SDS011;25875;48.202;16.334;2022-07-12T01:28:20;2.72;;;1.80;;
40154;SDS011;25875;48.202;16.334;2022-07-12T01:30:48;5.15;;;2.00;;
40154;SDS011;25875;48.202;16.334;2022-07-12T01:33:15;4.78;;;2.47;;
40154;SDS011;25875;48.202;16.334;2022-07-12T01:35:43;2.67;;;1.80;;
40154;SDS011;25875;48.202;16.334;2022-07-12T01:38:10;2.40;;;1.40;;
40154;SDS011;25875;48.202;16.334;2022-07-12T01:40:39;3.90;;;1.80;;
40154;SDS011;25875;48.202;16.334;2022-07-12T01:43:06;3.58;;;2.10;;
40154;SDS011;25875;48.202;16.334;2022-07-12T01:45:34;6.18;;;2.78;;
40154;SDS011;25875;48.202;16.334;2022-07-12T01:48:01;2.97;;;1.77;;
40154;SDS011;25875;48.202;16.334;2022-07-12T01:50:29;3.15;;;1.95;;
40154;SDS011;25875;48.202;16.334;2022-07-12T01:52:56;4.20;;;1.80;;
40154;SDS011;25875;48.202;16.334;2022-07-12T01:55:24;2.17;;;1.48;;
40154;SDS011;25875;48.202;16.334;2022-07-12T01:57:52;3.15;;;1.98;;
40154;SDS011;25875;48.202;16.334;2022-07-12T02:00:20;2.55;;;1.73;;
40154;SDS011;25875;48.202;16.334;2022-07-12T02:02:48;3.03;;;1.77;;
40154;SDS011;25875;48.202;16.334;2022-07-12T02:05:15;3.10;;;1.73;;
40154;SDS011;25875;48.202;16.334;2022-07-12T02:07:42;3.05;;;2.10;;
40154;SDS011;25875;48.202;16.334;2022-07-12T02:10:09;3.20;;;2.05;;
40154;SDS011;25875;48.202;16.334;2022-07-12T02:12:37;3.00;;;2.08;;
40154;SDS011;25875;48.202;16.334;2022-07-12T02:15:06;3.45;;;1.75;;
40154;SDS011;25875;48.202;16.334;2022-07-12T02:17:34;2.63;;;1.73;;
40154;SDS011;25875;48.202;16.334;2022-07-12T02:20:02;3.03;;;1.83;;
40154;SDS011;25875;48.202;16.334;2022-07-12T02:22:30;3.58;;;2.55;;
40154;SDS011;25875;48.202;16.334;2022-07-12T02:24:58;3.45;;;1.90;;
40154;SDS011;25875;48.202;16.334;2022-07-12T02:27:26;3.15;;;1.77;;
40154;SDS011;25875;48.202;16.334;2022-07-12T02:29:53;2.80;;;1.83;;
40154;SDS011;25875;48.202;16.334;2022-07-12T02:32:22;4.75;;;2.10;;
40154;SDS011;25875;48.202;16.334;2022-07-12T02:34:49;3.53;;;1.95;;
40154;SDS011;25875;48.202;16.334;2022-07-12T02:37:16;3.60;;;2.20;;
40154;SDS011;25875;48.202;16.334;2022-07-12T02:39:43;3.38;;;1.77;;
40154;SDS011;25875;48.202;16.334;2022-07-12T02:42:11;2.88;;;1.80;;
40154;SDS011;25875;48.202;16.334;2022-07-12T02:44:38;3.30;;;1.60;;
40154;SDS011;25875;48.202;16.334;2022-07-12T02:47:05;4.10;;;2.25;;
40154;SDS011;25875;48.202;16.334;2022-07-12T02:49:34;2.85;;;1.70;;
40154;SDS011;25875;48.202;16.334;2022-07-12T02:52:01;3.25;;;1.77;;
40154;SDS011;25875;48.202;16.334;2022-07-12T02:54:29;2.97;;;1.73;;
40154;SDS011;25875;48.202;16.334;2022-07-12T02:56:56;2.47;;;1.90;;
40154;SDS011;25875;48.202;16.334;2022-07-12T02:59:23;2.60;;;1.70;;
40154;SDS011;25875;48.202;16.334;2022-07-12T03:01:50;4.10;;;1.90;;
40154;SDS011;25875;48.202;16.334;2022-07-12T03:04:17;2.65;;;1.80;;
40154;SDS011;25875;48.202;16.334;2022-07-12T03:06:46;2.42;;;1.50;;
40154;SDS011;25875;48.202;16.334;2022-07-12T03:09:13;3.08;;;1.88;;
40154;SDS011;25875;48.202;16.334;2022-07-12T03:11:40;2.63;;;1.85;;
40154;SDS011;25875;48.202;16.334;2022-07-12T03:14:08;2.88;;;1.80;;
40154;SDS011;25875;48.202;16.334;2022-07-12T03:16:35;2.78;;;1.60;;
40154;SDS011;25875;48.202;16.334;2022-07-12T03:19:02;3.85;;;1.75;;
40154;SDS011;25875;48.202;16.334;2022-07-12T03:21:30;2.40;;;1.73;;
40154;SDS011;25875;48.202;16.334;2022-07-12T03:23:58;2.60;;;1.60;;
40154;SDS011;25875;48.202;16.334;2022-07-12T03:26:25;3.22;;;1.95;;
40154;SDS011;25875;48.202;16.334;2022-07-12T03:28:53;3.35;;;1.70;;
40154;SDS011;25875;48.202;16.334;2022-07-12T03:31:20;3.90;;;2.00;;
40154;SDS011;25875;48.202;16.334;2022-07-12T03:33:47;4.38;;;1.90;;
40154;SDS011;25875;48.202;16.334;2022-07-12T03:36:14;3.40;;;1.90;;
40154;SDS011;25875;48.202;16.334;2022-07-12T03:38:41;2.83;;;1.77;;
40154;SDS011;25875;48.202;16.334;2022-07-12T03:41:10;3.17;;;1.63;;
40154;SDS011;25875;48.202;16.334;2022-07-12T03:43:37;3.60;;;2.13;;
40154;SDS011;25875;48.202;16.334;2022-07-12T03:46:05;2.78;;;1.90;;
40154;SDS011;25875;48.202;16.334;2022-07-12T03:48:32;2.45;;;1.73;;
40154;SDS011;25875;48.202;16.334;2022-07-12T03:50:59;3.35;;;1.90;;
40154;SDS011;25875;48.202;16.334;2022-07-12T03:53:26;3.30;;;1.80;;
40154;SDS011;25875;48.202;16.334;2022-07-12T03:55:53;3.20;;;2.00;;
40154;SDS011;25875;48.202;16.334;2022-07-12T03:58:22;2.97;;;1.90;;
40154;SDS011;25875;48.202;16.334;2022-07-12T04:00:48;3.10;;;1.75;;
40154;SDS011;25875;48.202;16.334;2022-07-12T04:03:15;2.80;;;1.98;;
40154;SDS011;25875;48.202;16.334;2022-07-12T04:05:42;2.70;;;1.90;;
40154;SDS011;25875;48.202;16.334;2022-07-12T04:08:10;3.33;;;1.73;;
40154;SDS011;25875;48.202;16.334;2022-07-12T04:10:37;2.83;;;1.92;;
40154;SDS011;25875;48.202;16.334;2022-07-12T04:13:04;3.25;;;1.90;;
40154;SDS011;25875;48.202;16.334;2022-07-12T04:15:32;4.00;;;1.80;;
40154;SDS011;25875;48.202;16.334;2022-07-12T04:18:00;2.45;;;1.60;;
40154;SDS011;25875;48.202;16.334;2022-07-12T04:20:27;3.53;;;1.98;;
40154;SDS011;25875;48.202;16.334;2022-07-12T04:22:54;4.03;;;2.00;;
40154;SDS011;25875;48.202;16.334;2022-07-12T04:25:22;3.42;;;1.70;;
40154;SDS011;25875;48.202;16.334;2022-07-12T04:27:50;3.47;;;1.90;;
40154;SDS011;25875;48.202;16.334;2022-07-12T04:30:21;3.28;;;1.73;;
40154;SDS011;25875;48.202;16.334;2022-07-12T04:32:49;3.10;;;1.75;;
40154;SDS011;25875;48.202;16.334;2022-07-12T04:35:17;3.40;;;2.08;;
40154;SDS011;25875;48.202;16.334;2022-07-12T04:37:44;3.17;;;1.98;;
40154;SDS011;25875;48.202;16.334;2022-07-12T04:40:11;2.92;;;1.70;;
40154;SDS011;25875;48.202;16.334;2022-07-12T04:42:39;3.10;;;2.15;;
40154;SDS011;25875;48.202;16.334;2022-07-12T04:45:06;2.83;;;2.00;;
40154;SDS011;25875;48.202;16.334;2022-07-12T04:47:35;4.07;;;2.00;;
40154;SDS011;25875;48.202;16.334;2022-07-12T04:50:04;4.13;;;1.88;;
40154;SDS011;25875;48.202;16.334;2022-07-12T04:52:32;3.40;;;2.00;;
40154;SDS011;25875;48.202;16.334;2022-07-12T04:55:00;3.13;;;1.90;;
40154;SDS011;25875;48.202;16.334;2022-07-12T04:57:27;3.65;;;1.83;;
40154;SDS011;25875;48.202;16.334;2022-07-12T04:59:54;3.60;;;2.22;;
40154;SDS011;25875;48.202;16.334;2022-07-12T05:02:22;4.45;;;2.42;;
40154;SDS011;25875;48.202;16.334;2022-07-12T05:04:49;3.97;;;2.00;;
40154;SDS011;25875;48.202;16.334;2022-07-12T05:07:18;3.38;;;2.28;;
40154;SDS011;25875;48.202;16.334;2022-07-12T05:09:46;3.88;;;2.30;;
40154;SDS011;25875;48.202;16.334;2022-07-12T05:12:13;3.42;;;2.15;;
40154;SDS011;25875;48.202;16.334;2022-07-12T05:14:40;3.33;;;2.13;;
40154;SDS011;25875;48.202;16.334;2022-07-12T05:17:07;4.45;;;2.30;;
40154;SDS011;25875;48.202;16.334;2022-07-12T05:19:34;2.70;;;1.88;;
40154;SDS011;25875;48.202;16.334;2022-07-12T05:22:02;3.10;;;2.20;;
40154;SDS011;25875;48.202;16.334;2022-07-12T05:24:31;3.10;;;2.17;;
40154;SDS011;25875;48.202;16.334;2022-07-12T05:26:58;3.67;;;2.00;;
40154;SDS011;25875;48.202;16.334;2022-07-12T05:29:26;3.05;;;2.08;;
40154;SDS011;25875;48.202;16.334;2022-07-12T05:31:54;3.10;;;1.85;;
40154;SDS011;25875;48.202;16.334;2022-07-12T05:34:22;2.67;;;1.80;;
40154;SDS011;25875;48.202;16.334;2022-07-12T05:36:49;4.65;;;2.25;;
40154;SDS011;25875;48.202;16.334;2022-07-12T05:39:16;2.25;;;1.70;;
40154;SDS011;25875;48.202;16.334;2022-07-12T05:41:45;3.08;;;1.90;;
40154;SDS011;25875;48.202;16.334;2022-07-12T05:44:12;2.83;;;2.10;;
40154;SDS011;25875;48.202;16.334;2022-07-12T05:46:41;3.50;;;2.20;;
40154;SDS011;25875;48.202;16.334;2022-07-12T05:49:08;3.95;;;1.70;;
40154;SDS011;25875;48.202;16.334;2022-07-12T05:51:37;2.97;;;2.00;;
40154;SDS011;25875;48.202;16.334;2022-07-12T05:56:50;2.60;;;1.70;;
40154;SDS011;25875;48.202;16.334;2022-07-12T05:59:17;3.28;;;1.90;;
40154;SDS011;25875;48.202;16.334;2022-07-12T06:01:44;2.60;;;1.80;;
40154;SDS011;25875;48.202;16.334;2022-07-12T06:04:12;3.22;;;1.73;;
40154;SDS011;25875;48.202;16.334;2022-07-12T06:06:39;2.53;;;1.70;;
40154;SDS011;25875;48.202;16.334;2022-07-12T06:09:06;2.50;;;1.70;;
40154;SDS011;25875;48.202;16.334;2022-07-12T06:11:33;2.30;;;1.60;;
40154;SDS011;25875;48.202;16.334;2022-07-12T06:14:02;2.58;;;1.75;;
40154;SDS011;25875;48.202;16.334;2022-07-12T06:16:29;2.42;;;1.50;;
40154;SDS011;25875;48.202;16.334;2022-07-12T06:18:56;2.40;;;1.58;;
40154;SDS011;25875;48.202;16.334;2022-07-12T06:21:24;2.97;;;1.90;;
40154;SDS011;25875;48.202;16.334;2022-07-12T06:23:51;6.25;;;2.58;;
40154;SDS011;25875;48.202;16.334;2022-07-12T06:26:19;4.93;;;2.28;;
40154;SDS011;25875;48.202;16.334;2022-07-12T06:28:46;3.25;;;2.05;;
40154;SDS011;25875;48.202;16.334;2022-07-12T06:31:15;3.83;;;2.30;;
40154;SDS011;25875;48.202;16.334;2022-07-12T06:33:42;2.40;;;1.63;;
40154;SDS011;25875;48.202;16.334;2022-07-12T06:36:09;3.03;;;1.77;;
40154;SDS011;25875;48.202;16.334;2022-07-12T06:38:36;2.42;;;1.60;;
40154;SDS011;25875;48.202;16.334;2022-07-12T06:41:04;4.65;;;1.83;;
40154;SDS011;25875;48.202;16.334;2022-07-12T06:43:31;2.60;;;1.60;;
40154;SDS011;25875;48.202;16.334;2022-07-12T06:45:58;3.70;;;1.65;;
40154;SDS011;25875;48.202;16.334;2022-07-12T06:48:27;2.67;;;1.60;;
40154;SDS011;25875;48.202;16.334;2022-07-12T06:50:54;4.78;;;1.95;;
40154;SDS011;25875;48.202;16.334;2022-07-12T06:53:21;3.80;;;1.83;;
40154;SDS011;25875;48.202;16.334;2022-07-12T06:55:49;2.58;;;1.63;;
40154;SDS011;25875;48.202;16.334;2022-07-12T06:58:16;2.63;;;1.60;;
40154;SDS011;25875;48.202;16.334;2022-07-12T07:00:43;2.15;;;1.50;;
40154;SDS011;25875;48.202;16.334;2022-07-12T07:03:10;3.40;;;1.90;;
40154;SDS011;25875;48.202;16.334;2022-07-12T07:05:39;3.15;;;1.80;;
40154;SDS011;25875;48.202;16.334;2022-07-12T07:08:06;4.03;;;1.67;;
40154;SDS011;25875;48.202;16.334;2022-07-12T07:10:33;2.53;;;1.60;;
40154;SDS011;25875;48.202;16.334;2022-07-12T07:13:01;3.33;;;1.80;;
40154;SDS011;25875;48.202;16.334;2022-07-12T07:15:28;3.85;;;1.73;;
40154;SDS011;25875;48.202;16.334;2022-07-12T07:17:55;2.22;;;1.40;;
40154;SDS011;25875;48.202;16.334;2022-07-12T07:20:23;2.30;;;1.60;;
40154;SDS011;25875;48.202;16.334;2022-07-12T07:22:52;2.78;;;1.75;;
40154;SDS011;25875;48.202;16.334;2022-07-12T07:25:19;3.30;;;1.70;;
40154;SDS011;25875;48.202;16.334;2022-07-12T07:27:46;4.38;;;1.50;;
40154;SDS011;25875;48.202;16.334;2022-07-12T07:30:14;2.17;;;1.38;;
40154;SDS011;25875;48.202;16.334;2022-07-12T07:32:59;3.42;;;1.95;;
40154;SDS011;25875;48.202;16.334;2022-07-12T07:35:26;2.50;;;1.52;;
40154;SDS011;25875;48.202;16.334;2022-07-12T07:37:54;2.60;;;1.88;;
40154;SDS011;25875;48.202;16.334;2022-07-12T07:40:21;3.45;;;1.92;;
40154;SDS011;25875;48.202;16.334;2022-07-12T07:42:49;3.05;;;1.90;;
40154;SDS011;25875;48.202;16.334;2022-07-12T07:45:16;2.83;;;1.73;;
40154;SDS011;25875;48.202;16.334;2022-07-12T07:47:44;2.90;;;1.70;;
40154;SDS011;25875;48.202;16.334;2022-07-12T07:50:12;3.70;;;1.63;;
40154;SDS011;25875;48.202;16.334;2022-07-12T07:52:39;3.75;;;1.80;;
40154;SDS011;25875;48.202;16.334;2022-07-12T07:55:08;2.58;;;1.60;;
40154;SDS011;25875;48.202;16.334;2022-07-12T07:57:36;2.22;;;1.50;;
40154;SDS011;25875;48.202;16.334;2022-07-12T08:00:03;4.03;;;1.95;;
40154;SDS011;25875;48.202;16.334;2022-07-12T08:02:31;4.18;;;1.75;;
40154;SDS011;25875;48.202;16.334;2022-07-12T08:04:58;3.78;;;1.73;;
40154;SDS011;25875;48.202;16.334;2022-07-12T08:07:25;3.40;;;2.00;;
40154;SDS011;25875;48.202;16.334;2022-07-12T08:09:53;3.85;;;2.10;;
40154;SDS011;25875;48.202;16.334;2022-07-12T08:12:21;3.13;;;1.85;;
40154;SDS011;25875;48.202;16.334;2022-07-12T08:14:48;3.53;;;1.52;;
40154;SDS011;25875;48.202;16.334;2022-07-12T08:17:16;3.30;;;1.50;;
40154;SDS011;25875;48.202;16.334;2022-07-12T08:19:43;4.63;;;2.22;;
40154;SDS011;25875;48.202;16.334;2022-07-12T08:22:10;5.10;;;2.40;;
40154;SDS011;25875;48.202;16.334;2022-07-12T08:24:37;2.90;;;1.85;;
40154;SDS011;25875;48.202;16.334;2022-07-12T08:27:05;4.47;;;1.73;;
40154;SDS011;25875;48.202;16.334;2022-07-12T08:29:33;3.47;;;2.03;;
40154;SDS011;25875;48.202;16.334;2022-07-12T08:32:01;3.95;;;1.90;;
40154;SDS011;25875;48.202;16.334;2022-07-12T08:34:28;3.70;;;1.50;;
40154;SDS011;25875;48.202;16.334;2022-07-12T08:36:56;3.45;;;1.70;;
40154;SDS011;25875;48.202;16.334;2022-07-12T08:39:23;5.35;;;1.60;;
40154;SDS011;25875;48.202;16.334;2022-07-12T08:41:51;3.28;;;1.77;;
40154;SDS011;25875;48.202;16.334;2022-07-12T08:44:18;3.22;;;2.05;;
40154;SDS011;25875;48.202;16.334;2022-07-12T08:46:46;3.03;;;1.73;;
40154;SDS011;25875;48.202;16.334;2022-07-12T08:49:14;3.28;;;1.67;;
40154;SDS011;25875;48.202;16.334;2022-07-12T08:51:41;4.43;;;2.17;;
40154;SDS011;25875;48.202;16.334;2022-07-12T08:54:09;3.33;;;1.98;;
40154;SDS011;25875;48.202;16.334;2022-07-12T08:56:38;3.22;;;2.20;;
40154;SDS011;25875;48.202;16.334;2022-07-12T08:59:10;3.47;;;1.73;;
40154;SDS011;25875;48.202;16.334;2022-07-12T09:01:39;3.83;;;1.85;;
40154;SDS011;25875;48.202;16.334;2022-07-12T09:04:12;2.53;;;1.60;;
40154;SDS011;25875;48.202;16.334;2022-07-12T09:06:40;3.30;;;2.10;;
40154;SDS011;25875;48.202;16.334;2022-07-12T09:09:07;3.45;;;2.13;;
40154;SDS011;25875;48.202;16.334;2022-07-12T09:11:35;4.82;;;2.10;;
40154;SDS011;25875;48.202;16.334;2022-07-12T09:14:04;4.15;;;2.38;;
40154;SDS011;25875;48.202;16.334;2022-07-12T09:16:32;2.78;;;1.63;;
40154;SDS011;25875;48.202;16.334;2022-07-12T09:19:15;4.80;;;2.05;;
40154;SDS011;25875;48.202;16.334;2022-07-12T09:21:49;3.67;;;1.80;;
40154;SDS011;25875;48.202;16.334;2022-07-12T09:24:17;3.10;;;2.20;;
40154;SDS011;25875;48.202;16.334;2022-07-12T09:26:45;3.80;;;2.03;;
40154;SDS011;25875;48.202;16.334;2022-07-12T09:29:13;2.45;;;1.45;;
40154;SDS011;25875;48.202;16.334;2022-07-12T09:31:42;6.57;;;2.22;;
40154;SDS011;25875;48.202;16.334;2022-07-12T09:34:29;2.85;;;1.88;;
40154;SDS011;25875;48.202;16.334;2022-07-12T09:37:14;2.72;;;1.65;;
40154;SDS011;25875;48.202;16.334;2022-07-12T09:39:41;2.38;;;1.55;;
40154;SDS011;25875;48.202;16.334;2022-07-12T09:42:09;5.35;;;1.90;;
40154;SDS011;25875;48.202;16.334;2022-07-12T09:44:38;5.07;;;1.77;;
40154;SDS011;25875;48.202;16.334;2022-07-12T09:47:06;3.67;;;2.28;;
40154;SDS011;25875;48.202;16.334;2022-07-12T09:49:40;4.45;;;3.25;;
40154;SDS011;25875;48.202;16.334;2022-07-12T09:52:10;5.25;;;2.80;;
40154;SDS011;25875;48.202;16.334;2022-07-12T09:54:39;3.08;;;2.10;;
40154;SDS011;25875;48.202;16.334;2022-07-12T09:57:12;3.20;;;2.33;;
40154;SDS011;25875;48.202;16.334;2022-07-12T09:59:47;4.53;;;2.50;;
40154;SDS011;25875;48.202;16.334;2022-07-12T10:02:16;3.60;;;2.70;;
40154;SDS011;25875;48.202;16.334;2022-07-12T10:04:46;4.43;;;3.15;;
40154;SDS011;25875;48.202;16.334;2022-07-12T10:07:15;5.10;;;2.50;;
40154;SDS011;25875;48.202;16.334;2022-07-12T10:09:46;3.47;;;1.73;;
40154;SDS011;25875;48.202;16.334;2022-07-12T10:12:19;5.20;;;1.88;;
40154;SDS011;25875;48.202;16.334;2022-07-12T10:14:48;3.33;;;2.10;;
40154;SDS011;25875;48.202;16.334;2022-07-12T10:17:21;3.88;;;2.40;;
40154;SDS011;25875;48.202;16.334;2022-07-12T10:19:50;5.13;;;2.60;;
40154;SDS011;25875;48.202;16.334;2022-07-12T10:22:42;8.13;;;3.17;;
40154;SDS011;25875;48.202;16.334;2022-07-12T10:25:29;5.32;;;1.60;;
40154;SDS011;25875;48.202;16.334;2022-07-12T10:28:00;2.88;;;1.70;;
40154;SDS011;25875;48.202;16.334;2022-07-12T10:30:28;2.53;;;1.67;;
40154;SDS011;25875;48.202;16.334;2022-07-12T10:32:58;3.10;;;1.80;;
40154;SDS011;25875;48.202;16.334;2022-07-12T10:35:29;3.15;;;1.55;;
40154;SDS011;25875;48.202;16.334;2022-07-12T10:38:17;3.22;;;1.85;;
40154;SDS011;25875;48.202;16.334;2022-07-12T10:40:46;2.63;;;1.60;;
40154;SDS011;25875;48.202;16.334;2022-07-12T10:43:16;7.18;;;1.83;;
40154;SDS011;25875;48.202;16.334;2022-07-12T10:46:22;5.63;;;2.65;;
40154;SDS011;25875;48.202;16.334;2022-07-12T10:49:01;4.05;;;2.05;;
40154;SDS011;25875;48.202;16.334;2022-07-12T10:52:14;3.72;;;2.10;;
40154;SDS011;25875;48.202;16.334;2022-07-12T10:54:46;4.68;;;2.00;;
40154;SDS011;25875;48.202;16.334;2022-07-12T10:57:37;3.13;;;1.65;;
40154;SDS011;25875;48.202;16.334;2022-07-12T11:00:07;5.13;;;2.47;;
40154;SDS011;25875;48.202;16.334;2022-07-12T11:02:35;4.63;;;2.22;;
40154;SDS011;25875;48.202;16.334;2022-07-12T11:05:03;3.70;;;2.20;;
40154;SDS011;25875;48.202;16.334;2022-07-12T11:07:32;5.60;;;2.03;;
40154;SDS011;25875;48.202;16.334;2022-07-12T11:10:00;3.05;;;1.90;;
40154;SDS011;25875;48.202;16.334;2022-07-12T11:12:29;4.25;;;2.30;;
40154;SDS011;25875;48.202;16.334;2022-07-12T11:14:58;3.22;;;1.65;;
40154;SDS011;25875;48.202;16.334;2022-07-12T11:17:26;3.80;;;2.03;;
40154;SDS011;25875;48.202;16.334;2022-07-12T11:20:03;5.28;;;2.28;;
40154;SDS011;25875;48.202;16.334;2022-07-12T11:22:37;4.20;;;2.25;;
40154;SDS011;25875;48.202;16.334;2022-07-12T11:25:07;4.85;;;2.63;;
40154;SDS011;25875;48.202;16.334;2022-07-12T11:27:37;3.80;;;2.20;;
40154;SDS011;25875;48.202;16.334;2022-07-12T11:30:06;5.15;;;2.75;;
40154;SDS011;25875;48.202;16.334;2022-07-12T11:32:35;3.58;;;2.53;;
40154;SDS011;25875;48.202;16.334;2022-07-12T11:35:17;9.25;;;3.10;;
40154;SDS011;25875;48.202;16.334;2022-07-12T11:37:51;4.65;;;2.95;;
40154;SDS011;25875;48.202;16.334;2022-07-12T11:40:24;4.23;;;2.83;;
40154;SDS011;25875;48.202;16.334;2022-07-12T11:42:55;5.93;;;2.90;;
40154;SDS011;25875;48.202;16.334;2022-07-12T11:45:24;9.38;;;4.07;;
40154;SDS011;25875;48.202;16.334;2022-07-12T11:47:52;5.90;;;4.35;;
40154;SDS011;25875;48.202;16.334;2022-07-12T11:50:22;6.03;;;3.22;;
40154;SDS011;25875;48.202;16.334;2022-07-12T11:52:51;5.75;;;3.65;;
40154;SDS011;25875;48.202;16.334;2022-07-12T11:55:18;7.65;;;4.03;;
40154;SDS011;25875;48.202;16.334;2022-07-12T11:57:46;6.00;;;3.13;;
40154;SDS011;25875;48.202;16.334;2022-07-12T12:00:14;4.53;;;3.03;;
40154;SDS011;25875;48.202;16.334;2022-07-12T12:02:43;4.13;;;2.67;;
40154;SDS011;25875;48.202;16.334;2022-07-12T12:05:10;4.45;;;2.63;;
40154;SDS011;25875;48.202;16.334;2022-07-12T12:07:38;4.15;;;3.08;;
40154;SDS011;25875;48.202;16.334;2022-07-12T12:10:09;4.32;;;2.83;;
40154;SDS011;25875;48.202;16.334;2022-07-12T12:12:40;4.28;;;1.90;;
40154;SDS011;25875;48.202;16.334;2022-07-12T12:15:11;5.15;;;2.08;;
40154;SDS011;25875;48.202;16.334;2022-07-12T12:17:43;4.85;;;2.45;;
40154;SDS011;25875;48.202;16.334;2022-07-12T12:20:13;4.30;;;2.50;;
40154;SDS011;25875;48.202;16.334;2022-07-12T12:22:43;6.13;;;4.00;;
40154;SDS011;25875;48.202;16.334;2022-07-12T12:25:15;6.85;;;3.85;;
40154;SDS011;25875;48.202;16.334;2022-07-12T12:27:43;7.13;;;3.10;;
40154;SDS011;25875;48.202;16.334;2022-07-12T12:30:12;4.28;;;2.80;;
40154;SDS011;25875;48.202;16.334;2022-07-12T12:32:47;5.50;;;3.15;;
40154;SDS011;25875;48.202;16.334;2022-07-12T12:35:29;4.70;;;2.72;;
40154;SDS011;25875;48.202;16.334;2022-07-12T12:37:58;4.68;;;3.50;;
40154;SDS011;25875;48.202;16.334;2022-07-12T12:40:29;3.95;;;2.72;;
40154;SDS011;25875;48.202;16.334;2022-07-12T12:43:07;4.32;;;3.20;;
40154;SDS011;25875;48.202;16.334;2022-07-12T12:45:36;4.07;;;2.60;;
40154;SDS011;25875;48.202;16.334;2022-07-12T12:48:17;5.47;;;2.90;;
40154;SDS011;25875;48.202;16.334;2022-07-12T12:50:45;5.05;;;2.47;;
40154;SDS011;25875;48.202;16.334;2022-07-12T12:53:14;7.50;;;2.95;;
40154;SDS011;25875;48.202;16.334;2022-07-12T12:55:44;4.85;;;3.17;;
40154;SDS011;25875;48.202;16.334;2022-07-12T12:58:13;6.78;;;3.90;;
40154;SDS011;25875;48.202;16.334;2022-07-12T13:00:42;6.20;;;3.33;;
40154;SDS011;25875;48.202;16.334;2022-07-12T13:03:11;5.30;;;3.10;;
40154;SDS011;25875;48.202;16.334;2022-07-12T13:05:40;8.60;;;3.30;;
40154;SDS011;25875;48.202;16.334;2022-07-12T13:08:09;4.57;;;2.65;;
40154;SDS011;25875;48.202;16.334;2022-07-12T13:10:37;6.65;;;2.35;;
40154;SDS011;25875;48.202;16.334;2022-07-12T13:13:08;3.75;;;2.60;;
40154;SDS011;25875;48.202;16.334;2022-07-12T13:15:36;7.43;;;4.10;;
40154;SDS011;25875;48.202;16.334;2022-07-12T13:18:04;6.25;;;3.42;;
40154;SDS011;25875;48.202;16.334;2022-07-12T13:20:32;6.78;;;3.72;;
40154;SDS011;25875;48.202;16.334;2022-07-12T13:22:59;3.90;;;2.17;;
40154;SDS011;25875;48.202;16.334;2022-07-12T13:25:27;7.75;;;3.47;;
40154;SDS011;25875;48.202;16.334;2022-07-12T13:27:56;13.23;;;4.22;;
40154;SDS011;25875;48.202;16.334;2022-07-12T13:30:25;5.90;;;3.10;;
40154;SDS011;25875;48.202;16.334;2022-07-12T13:32:52;4.65;;;2.28;;
40154;SDS011;25875;48.202;16.334;2022-07-12T13:35:19;4.57;;;2.60;;
40154;SDS011;25875;48.202;16.334;2022-07-12T13:37:46;5.80;;;2.10;;
40154;SDS011;25875;48.202;16.334;2022-07-12T13:40:14;4.07;;;2.17;;
40154;SDS011;25875;48.202;16.334;2022-07-12T13:42:42;3.75;;;2.30;;
40154;SDS011;25875;48.202;16.334;2022-07-12T13:45:14;7.15;;;2.10;;
40154;SDS011;25875;48.202;16.334;2022-07-12T13:47:45;3.03;;;1.85;;
40154;SDS011;25875;48.202;16.334;2022-07-12T13:50:13;3.67;;;1.90;;
40154;SDS011;25875;48.202;16.334;2022-07-12T13:52:42;4.43;;;2.40;;
40154;SDS011;25875;48.202;16.334;2022-07-12T13:55:11;5.07;;;3.13;;
40154;SDS011;25875;48.202;16.334;2022-07-12T13:57:40;7.50;;;4.95;;
40154;SDS011;25875;48.202;16.334;2022-07-12T14:00:10;4.47;;;2.97;;
40154;SDS011;25875;48.202;16.334;2022-07-12T14:02:41;7.07;;;3.00;;
40154;SDS011;25875;48.202;16.334;2022-07-12T14:05:12;4.85;;;2.47;;
40154;SDS011;25875;48.202;16.334;2022-07-12T14:07:40;6.90;;;3.97;;
40154;SDS011;25875;48.202;16.334;2022-07-12T14:10:09;6.25;;;3.10;;
40154;SDS011;25875;48.202;16.334;2022-07-12T14:12:37;4.53;;;2.53;;
40154;SDS011;25875;48.202;16.334;2022-07-12T14:15:06;4.82;;;2.05;;
40154;SDS011;25875;48.202;16.334;2022-07-12T14:18:01;3.15;;;1.70;;
40154;SDS011;25875;48.202;16.334;2022-07-12T14:20:33;5.22;;;3.95;;
40154;SDS011;25875;48.202;16.334;2022-07-12T14:23:02;8.02;;;4.10;;
40154;SDS011;25875;48.202;16.334;2022-07-12T14:25:34;9.07;;;4.38;;
40154;SDS011;25875;48.202;16.334;2022-07-12T14:28:01;5.40;;;3.13;;
40154;SDS011;25875;48.202;16.334;2022-07-12T14:30:29;5.32;;;3.35;;
40154;SDS011;25875;48.202;16.334;2022-07-12T14:32:56;5.68;;;2.88;;
40154;SDS011;25875;48.202;16.334;2022-07-12T14:35:23;4.15;;;2.80;;
40154;SDS011;25875;48.202;16.334;2022-07-12T14:37:52;3.47;;;2.22;;
40154;SDS011;25875;48.202;16.334;2022-07-12T14:40:19;3.25;;;2.00;;
40154;SDS011;25875;48.202;16.334;2022-07-12T14:42:47;3.03;;;2.13;;
40154;SDS011;25875;48.202;16.334;2022-07-12T14:45:15;4.72;;;1.75;;
40154;SDS011;25875;48.202;16.334;2022-07-12T14:47:43;7.55;;;4.50;;